Time;durP1;ratioP1;P1;durP2;ratioP2;P2;SDS_P1;SDS_P2;PMS_P1;PMS_P2;Temp;Humidity;BMP_temperature;BMP_pressure;BME280_temperature;BME280_humidity;BME280_pressure;Samples;Min_cycle;Max_cycle;Signal;HPM_P1;HPM_P2
2023/02/02 00:01:02;;;;;;;;;;;;;;;;;;5037443;28;19929;-69
2023/02/02 00:03:29;;;;;;;;;;;;;;;;;;4999142;28;19968;-70
2023/02/02 00:05:55;;;;;;;;;;;;;;;;;;5004341;28;19925;-70
2023/02/02 00:08:20;;;;;;;;;;;;;;;;;;4995718;28;19926;-70
2023/02/02 00:10:46;;;;;;;;;;;;;;;;;;5001705;28;19929;-70
2023/02/02 00:13:12;;;;;;;;;;;;;;;;;;5002157;28;19967;-70
2023/02/02 00:15:38;;;;;;;;;;;;;;;;;;5015386;28;19933;-70
2023/02/02 00:18:04;;;;;;;;;;;;;;;;;;5014364;28;19951;-70
2023/02/02 00:20:30;;;;;;;;;;;;;;;;;;5032877;28;19979;-69
2023/02/02 00:22:56;;;;;;;;;;;;;;;;;;5032978;28;20289;-69
2023/02/02 00:25:22;;;;;;;;;;;;;;;;;;5032150;28;20005;-70
2023/02/02 00:27:48;;;;;;;;;;;;;;;;;;5022158;28;20383;-69
2023/02/02 00:30:13;;;;;;;;;;;;;;;;;;5031552;28;19968;-70
2023/02/02 00:32:39;;;;;;;;;;;;;;;;;;5032360;28;20309;-69
2023/02/02 00:35:05;;;;;;;;;;;;;;;;;;5032169;28;20378;-69
2023/02/02 00:37:31;;;;;;;;;;;;;;;;;;5032160;28;19935;-70
2023/02/02 00:39:57;;;;;;;;;;;;;;;;;;5009963;28;20318;-71
2023/02/02 00:42:23;;;;;;;;;;;;;;;;;;5005669;28;19921;-71
2023/02/02 00:47:33;;;;;;;;;;;;;;;;;;5023512;28;20036;-71
2023/02/02 00:49:59;;;;;;;;;;;;;;;;;;4990050;28;19921;-70
2023/02/02 00:52:25;;;;;;;;;;;;;;;;;;5012100;28;20020;-70
2023/02/02 00:54:51;;;;;;;;;;;;;;;;;;5005813;28;19929;-70
2023/02/02 00:57:17;;;;;;;;;;;;;;;;;;5006767;28;19932;-71
2023/02/02 00:59:43;;;;;;;;;;;;;;;;;;4990104;28;19921;-70
2023/02/02 01:02:09;;;;;;;;;;;;;;;;;;5015304;28;19929;-70
2023/02/02 01:04:35;;;;;;;;;;;;;;;;;;5029682;28;19971;-71
2023/02/02 01:07:01;;;;;;;;;;;;;;;;;;5012491;28;19928;-71
2023/02/02 01:09:27;;;;;;;;;;;;;;;;;;5026974;28;19987;-71
2023/02/02 01:11:52;;;;;;;;;;;;;;;;;;5013273;28;19921;-70
2023/02/02 01:14:18;;;;;;;;;;;;;;;;;;5016572;28;19930;-70
2023/02/02 01:16:44;;;;;;;;;;;;;;;;;;5007102;28;19936;-70
2023/02/02 01:19:10;;;;;;;;;;;;;;;;;;5015848;28;19925;-70
2023/02/02 01:21:36;;;;;;;;;;;;;;;;;;5032963;28;19959;-70
2023/02/02 01:24:02;;;;;;;;;;;;;;;;;;5030737;28;20681;-70
2023/02/02 01:26:28;;;;;;;;;;;;;;;;;;5012921;28;19974;-70
2023/02/02 01:28:54;;;;;;;;;;;;;;;;;;5015758;28;20359;-69
2023/02/02 01:31:20;;;;;;;;;;;;;;;;;;5023213;28;19925;-69
2023/02/02 01:33:45;;;;;;;;;;;;;;;;;;5014751;28;19922;-71
2023/02/02 01:36:11;;;;;;;;;;;;;;;;;;5031968;28;19933;-70
2023/02/02 01:38:37;;;;;;;;;;;;;;;;;;5033279;28;20434;-69
2023/02/02 01:41:03;;;;;;;;;;;;;;;;;;5015719;28;19921;-74
2023/02/02 01:43:29;;;;;;;;;;;;;;;;;;5032272;28;19933;-69
2023/02/02 01:45:55;;;;;;;;;;;;;;;;;;5032346;28;20003;-69
2023/02/02 01:48:21;;;;;;;;;;;;;;;;;;5006914;28;19932;-70
2023/02/02 01:50:47;;;;;;;;;;;;;;;;;;5008040;28;19929;-70
2023/02/02 01:53:13;;;;;;;;;;;;;;;;;;5006530;28;19925;-71
2023/02/02 01:55:38;;;;;;;;;;;;;;;;;;5000750;28;20438;-70
2023/02/02 01:58:04;;;;;;;;;;;;;;;;;;4999677;28;19928;-70
2023/02/02 02:00:30;;;;;;;;;;;;;;;;;;5002156;28;19951;-70
2023/02/02 02:02:56;;;;;;;;;;;;;;;;;;5023984;28;19957;-70
2023/02/02 02:05:22;;;;;;;;;;;;;;;;;;5005666;28;19929;-69
2023/02/02 02:07:48;;;;;;;;;;;;;;;;;;5023267;28;20613;-69
2023/02/02 02:10:14;;;;;;;;;;;;;;;;;;4986045;28;19925;-70
2023/02/02 02:12:40;;;;;;;;;;;;;;;;;;5004860;28;20035;-69
2023/02/02 02:17:50;;;;;;;;;;;;;;;;;;5006047;28;19925;-69
2023/02/02 02:28:30;;;;;;;;;;;;;;;;;;5030406;28;19984;-70
2023/02/02 02:30:55;;;;;;;;;;;;;;;;;;5013863;28;19971;-70
2023/02/02 02:33:21;;;;;;;;;;;;;;;;;;5031734;28;20291;-70
2023/02/02 02:35:47;;;;;;;;;;;;;;;;;;5007659;28;19933;-70
2023/02/02 02:38:13;;;;;;;;;;;;;;;;;;5023195;28;20039;-70
2023/02/02 02:40:39;;;;;;;;;;;;;;;;;;5007226;28;19932;-70
2023/02/02 02:43:05;;;;;;;;;;;;;;;;;;5022395;28;19972;-71
2023/02/02 02:45:31;;;;;;;;;;;;;;;;;;5021760;28;19921;-70
2023/02/02 02:47:57;;;;;;;;;;;;;;;;;;5008209;28;20624;-70
2023/02/02 02:50:23;;;;;;;;;;;;;;;;;;5008363;28;19925;-70
2023/02/02 02:52:48;;;;;;;;;;;;;;;;;;5011045;28;19921;-70
2023/02/02 02:55:14;;;;;;;;;;;;;;;;;;4995904;28;19956;-70
2023/02/02 02:57:40;;;;;;;;;;;;;;;;;;5025926;28;20017;-69
2023/02/02 03:00:06;;;;;;;;;;;;;;;;;;5011804;28;19925;-70
2023/02/02 03:02:33;;;;;;;;;;;;;;;;;;5031296;28;19921;-70
2023/02/02 03:04:59;;;;;;;;;;;;;;;;;;5014028;28;19921;-69
2023/02/02 03:07:24;;;;;;;;;;;;;;;;;;5012376;28;19925;-70
2023/02/02 03:09:50;;;;;;;;;;;;;;;;;;5012176;28;19972;-70
2023/02/02 03:12:16;;;;;;;;;;;;;;;;;;5013409;28;19921;-71
2023/02/02 03:14:42;;;;;;;;;;;;;;;;;;4993093;28;19921;-70
2023/02/02 03:17:08;;;;;;;;;;;;;;;;;;5012635;28;20414;-71
2023/02/02 03:19:34;;;;;;;;;;;;;;;;;;5012906;28;19933;-71
2023/02/02 03:22:00;;;;;;;;;;;;;;;;;;5029431;28;19921;-70
2023/02/02 03:24:26;;;;;;;;;;;;;;;;;;5030098;28;19921;-71
2023/02/02 03:26:51;;;;;;;;;;;;;;;;;;5013387;28;19936;-71
2023/02/02 03:29:17;;;;;;;;;;;;;;;;;;5012035;28;19925;-71
2023/02/02 03:31:43;;;;;;;;;;;;;;;;;;5030057;28;20027;-70
2023/02/02 03:34:09;;;;;;;;;;;;;;;;;;5029635;28;19921;-70
2023/02/02 03:36:35;;;;;;;;;;;;;;;;;;5013498;28;19929;-71
2023/02/02 03:39:01;;;;;;;;;;;;;;;;;;5019022;28;19976;-70
2023/02/02 03:41:27;;;;;;;;;;;;;;;;;;5021795;28;20012;-70
2023/02/02 03:43:53;;;;;;;;;;;;;;;;;;5013513;28;19928;-69
2023/02/02 03:46:19;;;;;;;;;;;;;;;;;;5011046;28;19921;-69
2023/02/02 03:48:44;;;;;;;;;;;;;;;;;;5013749;28;19925;-69
2023/02/02 03:51:10;;;;;;;;;;;;;;;;;;5016936;28;19991;-70
2023/02/02 03:53:36;;;;;;;;;;;;;;;;;;5015258;28;19921;-69
2023/02/02 03:56:02;;;;;;;;;;;;;;;;;;5012163;28;19928;-69
2023/02/02 03:58:28;;;;;;;;;;;;;;;;;;5028941;28;19929;-69
2023/02/02 04:00:54;;;;;;;;;;;;;;;;;;5030439;28;19921;-70
2023/02/02 04:03:20;;;;;;;;;;;;;;;;;;5034255;28;19928;-70
2023/02/02 04:05:46;;;;;;;;;;;;;;;;;;5016095;28;19921;-69
2023/02/02 04:08:12;;;;;;;;;;;;;;;;;;5013629;28;19932;-70
2023/02/02 04:10:41;;;;;;;;;;;;;;;;;;5011395;28;20339;-69
2023/02/02 04:13:07;;;;;;;;;;;;;;;;;;4995688;28;19921;-69
2023/02/02 04:15:32;;;;;;;;;;;;;;;;;;5011187;28;19925;-70
2023/02/02 04:17:58;;;;;;;;;;;;;;;;;;4997045;28;19940;-69
2023/02/02 04:20:24;;;;;;;;;;;;;;;;;;5033398;28;19925;-70
2023/02/02 04:22:50;;;;;;;;;;;;;;;;;;5030440;28;19927;-69
2023/02/02 04:25:16;;;;;;;;;;;;;;;;;;4998534;28;19991;-68
2023/02/02 04:27:42;;;;;;;;;;;;;;;;;;5015259;28;20298;-69
2023/02/02 04:30:08;;;;;;;;;;;;;;;;;;5014724;28;19921;-69
2023/02/02 04:32:34;;;;;;;;;;;;;;;;;;5015127;28;19928;-69
2023/02/02 04:35:00;;;;;;;;;;;;;;;;;;5015503;28;20379;-69
2023/02/02 04:37:25;;;;;;;;;;;;;;;;;;5034641;28;19965;-69
2023/02/02 04:39:54;;;;;;;;;;;;;;;;;;5014835;28;20020;-70
2023/02/02 04:42:20;;;;;;;;;;;;;;;;;;5016683;28;20051;-70
2023/02/02 04:44:45;;;;;;;;;;;;;;;;;;5013737;28;20004;-70
2023/02/02 04:47:11;;;;;;;;;;;;;;;;;;5015896;28;19925;-70
2023/02/02 04:49:38;;;;;;;;;;;;;;;;;;5014892;28;19925;-70
2023/02/02 04:52:04;;;;;;;;;;;;;;;;;;5015157;28;19921;-69
2023/02/02 04:54:29;;;;;;;;;;;;;;;;;;5014578;28;19967;-69
2023/02/02 04:56:55;;;;;;;;;;;;;;;;;;5033179;28;19948;-70
2023/02/02 04:59:21;;;;;;;;;;;;;;;;;;4999362;28;19929;-70
2023/02/02 05:01:47;;;;;;;;;;;;;;;;;;5010345;28;20016;-70
2023/02/02 05:04:13;;;;;;;;;;;;;;;;;;5011459;28;20266;-70
2023/02/02 05:06:39;;;;;;;;;;;;;;;;;;4993998;28;20371;-70
2023/02/02 05:09:05;;;;;;;;;;;;;;;;;;5011558;28;19932;-70
2023/02/02 05:11:31;;;;;;;;;;;;;;;;;;4997846;28;20371;-70
2023/02/02 05:13:56;;;;;;;;;;;;;;;;;;5014738;28;19921;-69
2023/02/02 05:16:22;;;;;;;;;;;;;;;;;;5008966;28;19980;-69
2023/02/02 05:18:49;;;;;;;;;;;;;;;;;;5025425;23;20569;-69
2023/02/02 05:21:15;;;;;;;;;;;;;;;;;;5031912;28;19929;-70
2023/02/02 05:23:41;;;;;;;;;;;;;;;;;;5017721;28;19924;-69
2023/02/02 05:26:07;;;;;;;;;;;;;;;;;;4999812;28;19964;-70
2023/02/02 05:28:34;;;;;;;;;;;;;;;;;;5013817;28;19921;-69
2023/02/02 05:31:00;;;;;;;;;;;;;;;;;;5005190;28;20003;-70
2023/02/02 05:33:26;;;;;;;;;;;;;;;;;;5008917;28;20349;-69
2023/02/02 05:35:52;;;;;;;;;;;;;;;;;;5006773;28;19931;-70
2023/02/02 05:38:18;;;;;;;;;;;;;;;;;;5029145;28;19928;-70
2023/02/02 05:40:44;;;;;;;;;;;;;;;;;;5013923;28;19956;-70
2023/02/02 05:43:09;;;;;;;;;;;;;;;;;;5013565;28;19921;-70
2023/02/02 05:45:35;;;;;;;;;;;;;;;;;;5031701;28;19929;-70
2023/02/02 05:48:01;;;;;;;;;;;;;;;;;;5027745;28;20325;-70
2023/02/02 05:50:27;;;;;;;;;;;;;;;;;;5005458;28;19932;-70
2023/02/02 05:52:53;;;;;;;;;;;;;;;;;;5031468;28;19932;-69
2023/02/02 05:55:19;;;;;;;;;;;;;;;;;;5014543;28;19921;-69
2023/02/02 05:57:45;;;;;;;;;;;;;;;;;;5010817;28;20487;-69
2023/02/02 06:00:11;;;;;;;;;;;;;;;;;;5011351;28;19963;-70
2023/02/02 06:02:36;;;;;;;;;;;;;;;;;;5026876;28;19925;-70
2023/02/02 06:05:02;;;;;;;;;;;;;;;;;;5000990;28;20536;-70
2023/02/02 06:07:28;;;;;;;;;;;;;;;;;;5000658;28;19999;-70
2023/02/02 06:09:54;;;;;;;;;;;;;;;;;;5014498;28;20290;-70
2023/02/02 06:12:20;;;;;;;;;;;;;;;;;;5012516;28;19932;-71
2023/02/02 06:14:46;;;;;;;;;;;;;;;;;;5014772;28;19921;-70
2023/02/02 06:17:12;;;;;;;;;;;;;;;;;;5030262;28;19933;-69
2023/02/02 06:19:38;;;;;;;;;;;;;;;;;;5031493;28;19940;-69
2023/02/02 06:22:04;;;;;;;;;;;;;;;;;;5014479;28;19972;-70
2023/02/02 06:24:30;;;;;;;;;;;;;;;;;;5011825;28;20420;-70
2023/02/02 06:26:56;;;;;;;;;;;;;;;;;;5014488;28;19927;-70
2023/02/02 06:29:21;;;;;;;;;;;;;;;;;;5014645;28;19929;-69
2023/02/02 06:31:47;;;;;;;;;;;;;;;;;;5014510;28;20018;-70
2023/02/02 06:34:13;;;;;;;;;;;;;;;;;;5032333;28;19924;-70
2023/02/02 06:36:39;;;;;;;;;;;;;;;;;;5014267;28;20363;-69
2023/02/02 06:39:06;;;;;;;;;;;;;;;;;;5031992;28;19983;-70
2023/02/02 06:41:32;;;;;;;;;;;;;;;;;;5030944;28;19925;-70
2023/02/02 06:43:58;;;;;;;;;;;;;;;;;;5014356;28;19921;-70
2023/02/02 06:46:24;;;;;;;;;;;;;;;;;;5032553;28;19974;-70
2023/02/02 06:48:50;;;;;;;;;;;;;;;;;;5011075;28;19921;-70
2023/02/02 06:51:16;;;;;;;;;;;;;;;;;;5013720;28;20323;-70
2023/02/02 06:53:42;;;;;;;;;;;;;;;;;;5009931;28;19975;-70
2023/02/02 06:56:08;;;;;;;;;;;;;;;;;;5009168;28;19933;-71
2023/02/02 06:58:33;;;;;;;;;;;;;;;;;;5014045;28;20434;-70
2023/02/02 07:00:59;;;;;;;;;;;;;;;;;;5011892;28;20459;-70
2023/02/02 07:03:25;;;;;;;;;;;;;;;;;;5013772;28;19927;-70
2023/02/02 07:05:51;;;;;;;;;;;;;;;;;;5013772;28;20393;-70
2023/02/02 07:08:17;;;;;;;;;;;;;;;;;;5013904;28;19928;-70
2023/02/02 07:10:43;;;;;;;;;;;;;;;;;;5014303;28;19921;-70
2023/02/02 07:13:09;;;;;;;;;;;;;;;;;;5010958;28;19925;-70
2023/02/02 07:15:35;;;;;;;;;;;;;;;;;;5031070;28;19982;-70
2023/02/02 07:18:01;;;;;;;;;;;;;;;;;;5012298;28;19925;-70
2023/02/02 07:20:27;;;;;;;;;;;;;;;;;;5031782;28;19921;-70
2023/02/02 07:22:52;;;;;;;;;;;;;;;;;;5013876;28;19949;-70
2023/02/02 07:25:18;;;;;;;;;;;;;;;;;;5018037;28;20493;-69
2023/02/02 07:27:46;;;;;;;;;;;;;;;;;;5017615;28;19921;-70
2023/02/02 07:30:12;;;;;;;;;;;;;;;;;;5034855;28;19936;-70
2023/02/02 07:32:38;;;;;;;;;;;;;;;;;;5017839;28;20573;-71
2023/02/02 07:35:04;;;;;;;;;;;;;;;;;;5015501;28;19948;-68
2023/02/02 07:37:30;;;;;;;;;;;;;;;;;;5018512;28;19932;-69
2023/02/02 07:39:56;;;;;;;;;;;;;;;;;;5037323;28;20290;-69
2023/02/02 07:42:22;;;;;;;;;;;;;;;;;;5019066;28;19959;-70
2023/02/02 07:44:47;;;;;;;;;;;;;;;;;;5020055;28;19921;-69
2023/02/02 07:47:13;;;;;;;;;;;;;;;;;;5020078;28;20665;-70
2023/02/02 07:49:39;;;;;;;;;;;;;;;;;;5034873;28;19972;-70
2023/02/02 07:52:05;;;;;;;;;;;;;;;;;;5019701;28;20008;-70
2023/02/02 07:54:31;;;;;;;;;;;;;;;;;;5019516;28;19932;-70
2023/02/02 07:56:59;;;;;;;;;;;;;;;;;;5019724;28;19929;-70
2023/02/02 07:59:25;;;;;;;;;;;;;;;;;;5002959;28;19921;-70
2023/02/02 08:01:51;;;;;;;;;;;;;;;;;;5036153;28;20501;-70
2023/02/02 08:04:17;;;;;;;;;;;;;;;;;;5020150;28;19952;-70
2023/02/02 08:06:43;;;;;;;;;;;;;;;;;;5018352;28;20329;-70
2023/02/02 08:09:09;;;;;;;;;;;;;;;;;;5035983;28;19925;-70
2023/02/02 08:11:35;;;;;;;;;;;;;;;;;;5019903;28;19932;-70
2023/02/02 08:14:01;;;;;;;;;;;;;;;;;;5013128;28;19928;-69
2023/02/02 08:16:27;;;;;;;;;;;;;;;;;;5037075;28;19929;-70
2023/02/02 08:18:53;;;;;;;;;;;;;;;;;;5012109;28;19932;-70
2023/02/02 08:21:18;;;;;;;;;;;;;;;;;;5037503;28;20330;-69
2023/02/02 08:23:44;;;;;;;;;;;;;;;;;;5035763;28;19929;-70
2023/02/02 08:26:10;;;;;;;;;;;;;;;;;;5017242;28;19921;-70
2023/02/02 08:28:36;;;;;;;;;;;;;;;;;;5031898;28;20401;-70
2023/02/02 08:31:02;;;;;;;;;;;;;;;;;;5036558;28;20370;-70
2023/02/02 08:33:28;;;;;;;;;;;;;;;;;;5003432;28;20428;-70
2023/02/02 08:35:54;;;;;;;;;;;;;;;;;;5016864;28;19937;-70
2023/02/02 08:38:20;;;;;;;;;;;;;;;;;;5014492;28;19936;-70
2023/02/02 08:40:46;;;;;;;;;;;;;;;;;;5007502;28;19968;-71
2023/02/02 08:43:12;;;;;;;;;;;;;;;;;;5007492;28;19932;-70
2023/02/02 08:45:38;;;;;;;;;;;;;;;;;;5015397;28;20384;-70
2023/02/02 08:48:04;;;;;;;;;;;;;;;;;;5020382;28;19970;-70
2023/02/02 08:50:30;;;;;;;;;;;;;;;;;;5033412;28;19956;-71
2023/02/02 08:52:56;;;;;;;;;;;;;;;;;;5015189;28;21223;-70
2023/02/02 08:55:22;;;;;;;;;;;;;;;;;;4997519;28;19925;-71
2023/02/02 08:57:47;;;;;;;;;;;;;;;;;;5032081;28;19929;-71
2023/02/02 09:00:13;;;;;;;;;;;;;;;;;;5016214;28;19979;-70
2023/02/02 09:02:39;;;;;;;;;;;;;;;;;;5014473;28;20364;-69
2023/02/02 09:05:06;;;;;;;;;;;;;;;;;;5012593;28;19931;-69
2023/02/02 09:07:31;;;;;;;;;;;;;;;;;;5013776;28;20013;-70
2023/02/02 09:09:57;;;;;;;;;;;;;;;;;;5030492;28;19956;-71
2023/02/02 09:12:24;;;;;;;;;;;;;;;;;;5013103;28;19932;-69
2023/02/02 09:14:50;;;;;;;;;;;;;;;;;;5029205;28;19925;-70
2023/02/02 09:17:16;;;;;;;;;;;;;;;;;;5022864;28;19991;-70
2023/02/02 09:19:41;;;;;;;;;;;;;;;;;;5010626;28;19975;-70
2023/02/02 09:22:07;;;;;;;;;;;;;;;;;;4995733;28;19928;-71
2023/02/02 09:24:33;;;;;;;;;;;;;;;;;;5007385;28;20761;-71
2023/02/02 09:26:59;;;;;;;;;;;;;;;;;;5025652;28;19961;-69
2023/02/02 09:29:25;;;;;;;;;;;;;;;;;;5009550;28;19921;-70
2023/02/02 09:31:51;;;;;;;;;;;;;;;;;;5026035;28;19973;-70
2023/02/02 09:34:17;;;;;;;;;;;;;;;;;;5008202;28;19925;-71
2023/02/02 09:36:43;;;;;;;;;;;;;;;;;;5010490;28;19983;-71
2023/02/02 09:39:09;;;;;;;;;;;;;;;;;;5007007;28;19926;-71
2023/02/02 09:41:35;;;;;;;;;;;;;;;;;;5006261;28;19928;-71
2023/02/02 09:44:01;;;;;;;;;;;;;;;;;;5031133;28;19925;-72
2023/02/02 09:46:26;;;;;;;;;;;;;;;;;;5029981;28;20406;-72
2023/02/02 09:48:52;;;;;;;;;;;;;;;;;;5023164;28;19960;-72
2023/02/02 09:51:18;;;;;;;;;;;;;;;;;;5010927;28;20004;-71
2023/02/02 09:53:44;;;;;;;;;;;;;;;;;;4997896;28;19925;-70
2023/02/02 09:56:10;;;;;;;;;;;;;;;;;;5031130;28;19925;-70
2023/02/02 09:58:36;;;;;;;;;;;;;;;;;;5012064;28;19921;-70
2023/02/02 10:01:02;;;;;;;;;;;;;;;;;;5031277;28;19940;-70
2023/02/02 10:03:28;;;;;;;;;;;;;;;;;;5000797;28;19932;-70
2023/02/02 10:05:54;;;;;;;;;;;;;;;;;;5012671;28;19921;-70
2023/02/02 10:08:20;;;;;;;;;;;;;;;;;;5013916;28;19928;-71
2023/02/02 10:10:46;;;;;;;;;;;;;;;;;;5015409;28;19929;-71
2023/02/02 10:13:12;;;;;;;;;;;;;;;;;;5017141;28;19935;-71
2023/02/02 10:15:38;;;;;;;;;;;;;;;;;;5012813;28;20488;-71
2023/02/02 10:18:04;;;;;;;;;;;;;;;;;;5013758;28;19921;-71
2023/02/02 10:20:30;;;;;;;;;;;;;;;;;;5012407;28;19925;-70
2023/02/02 10:22:56;;;;;;;;;;;;;;;;;;5012771;28;19921;-71
2023/02/02 10:25:22;;;;;;;;;;;;;;;;;;5015055;28;19932;-70
2023/02/02 10:27:48;;;;;;;;;;;;;;;;;;5013851;28;19921;-70
2023/02/02 10:30:13;;;;;;;;;;;;;;;;;;5014410;28;19925;-70
2023/02/02 10:32:41;;;;;;;;;;;;;;;;;;5012289;28;20307;-71
2023/02/02 10:35:07;;;;;;;;;;;;;;;;;;5030662;28;19932;-71
2023/02/02 10:37:33;;;;;;;;;;;;;;;;;;5012856;28;19929;-71
2023/02/02 10:39:59;;;;;;;;;;;;;;;;;;5010176;28;20375;-71
2023/02/02 10:42:25;;;;;;;;;;;;;;;;;;5017887;28;19983;-71
2023/02/02 10:44:51;;;;;;;;;;;;;;;;;;5012816;28;20016;-71
2023/02/02 10:47:16;;;;;;;;;;;;;;;;;;5010119;28;19929;-71
2023/02/02 10:49:42;;;;;;;;;;;;;;;;;;5012746;28;19921;-71
2023/02/02 10:52:08;;;;;;;;;;;;;;;;;;5025697;28;20298;-71
2023/02/02 10:54:37;;;;;;;;;;;;;;;;;;5008733;28;19930;-70
2023/02/02 10:57:03;;;;;;;;;;;;;;;;;;5004131;28;20394;-70
2023/02/02 10:59:28;;;;;;;;;;;;;;;;;;5013319;28;19921;-70
2023/02/02 11:01:54;;;;;;;;;;;;;;;;;;5014930;28;19929;-71
2023/02/02 11:07:05;;;;;;;;;;;;;;;;;;5007632;28;19928;-71
2023/02/02 11:09:31;;;;;;;;;;;;;;;;;;5003821;28;19940;-71
2023/02/02 11:11:57;;;;;;;;;;;;;;;;;;5006505;28;19922;-70
2023/02/02 11:14:23;;;;;;;;;;;;;;;;;;4996486;28;20338;-70
2023/02/02 11:19:20;;;;;;;;;;;;;;;;;;5045661;28;20362;-68
2023/02/02 11:21:47;;;;;;;;;;;;;;;;;;5030785;28;19956;-69
2023/02/02 11:24:13;;;;;;;;;;;;;;;;;;5029461;28;19924;-69
2023/02/02 11:26:39;;;;;;;;;;;;;;;;;;5045219;28;19920;-68
2023/02/02 11:29:05;;;;;;;;;;;;;;;;;;5040808;28;19953;-68
2023/02/02 11:31:31;;;;;;;;;;;;;;;;;;5048045;28;20537;-68
2023/02/02 11:33:57;;;;;;;;;;;;;;;;;;5039126;28;19931;-68
2023/02/02 11:36:23;;;;;;;;;;;;;;;;;;5039161;28;19932;-68
2023/02/02 11:38:48;;;;;;;;;;;;;;;;;;5026827;28;20290;-68
2023/02/02 11:41:15;;;;;;;;;;;;;;;;;;5030692;28;19951;-68
2023/02/02 11:43:43;;;;;;;;;;;;;;;;;;5033227;28;20027;-67
2023/02/02 11:46:08;;;;;;;;;;;;;;;;;;5049589;28;19978;-67
2023/02/02 11:48:34;;;;;;;;;;;;;;;;;;5033793;28;19921;-67
2023/02/02 11:51:00;;;;;;;;;;;;;;;;;;5050043;28;20279;-68
2023/02/02 11:53:26;;;;;;;;;;;;;;;;;;5030257;28;21522;-67
2023/02/02 11:55:52;;;;;;;;;;;;;;;;;;5032285;28;19924;-68
2023/02/02 11:58:18;;;;;;;;;;;;;;;;;;5043982;28;19932;-68
2023/02/02 12:00:44;;;;;;;;;;;;;;;;;;5046029;28;20023;-68
2023/02/02 12:03:10;;;;;;;;;;;;;;;;;;5042597;28;19925;-68
2023/02/02 12:05:36;;;;;;;;;;;;;;;;;;5033157;28;19971;-68
2023/02/02 12:08:02;;;;;;;;;;;;;;;;;;5030909;28;19925;-68
2023/02/02 12:10:28;;;;;;;;;;;;;;;;;;5033420;28;19921;-68
2023/02/02 12:12:54;;;;;;;;;;;;;;;;;;5041162;28;19943;-68
2023/02/02 12:15:20;;;;;;;;;;;;;;;;;;5033467;28;20328;-68
2023/02/02 12:17:47;;;;;;;;;;;;;;;;;;5031939;28;19933;-68
2023/02/02 12:20:13;;;;;;;;;;;;;;;;;;5035933;28;20366;-68
2023/02/02 12:22:40;;;;;;;;;;;;;;;;;;5035165;28;20044;-68
2023/02/02 12:25:08;;;;;;;;;;;;;;;;;;5029034;28;19979;-68
2023/02/02 12:27:33;;;;;;;;;;;;;;;;;;5032863;28;19951;-68
2023/02/02 12:29:59;;;;;;;;;;;;;;;;;;5026544;28;19925;-68
2023/02/02 12:32:25;;;;;;;;;;;;;;;;;;5031725;28;19921;-68
2023/02/02 12:34:51;;;;;;;;;;;;;;;;;;5051074;28;19927;-69
2023/02/02 12:37:17;;;;;;;;;;;;;;;;;;5034705;28;19929;-69
2023/02/02 12:39:43;;;;;;;;;;;;;;;;;;5053712;28;20374;-69
2023/02/02 12:42:09;;;;;;;;;;;;;;;;;;5053173;28;19931;-68
2023/02/02 12:44:35;;;;;;;;;;;;;;;;;;5028806;28;19932;-69
2023/02/02 12:47:01;;;;;;;;;;;;;;;;;;5034247;28;19928;-69
2023/02/02 12:49:27;;;;;;;;;;;;;;;;;;5047854;28;19970;-69
2023/02/02 12:51:53;;;;;;;;;;;;;;;;;;5025108;28;19972;-69
2023/02/02 12:54:18;;;;;;;;;;;;;;;;;;5044563;28;19932;-69
2023/02/02 12:56:44;;;;;;;;;;;;;;;;;;5046329;28;19929;-68
2023/02/02 12:59:12;;;;;;;;;;;;;;;;;;5033282;28;19990;-69
2023/02/02 13:01:38;;;;;;;;;;;;;;;;;;5026739;28;19924;-69
2023/02/02 13:04:04;;;;;;;;;;;;;;;;;;5054005;28;19920;-69
2023/02/02 13:06:31;;;;;;;;;;;;;;;;;;5031616;28;19927;-69
2023/02/02 13:08:57;;;;;;;;;;;;;;;;;;5047923;28;19925;-69
2023/02/02 13:11:29;;;;;;;;;;;;;;;;;;5034569;28;19927;-69
2023/02/02 13:13:55;;;;;;;;;;;;;;;;;;5017878;28;20008;-69
2023/02/02 13:16:22;;;;;;;;;;;;;;;;;;5044856;28;19932;-69
2023/02/02 13:18:48;;;;;;;;;;;;;;;;;;5032891;28;19933;-69
2023/02/02 13:21:15;;;;;;;;;;;;;;;;;;5030717;28;19928;-69
2023/02/02 13:23:43;;;;;;;;;;;;;;;;;;5027230;28;21310;-69
2023/02/02 13:26:11;;;;;;;;;;;;;;;;;;5034767;28;20277;-70
2023/02/02 13:28:37;;;;;;;;;;;;;;;;;;5024648;28;20385;-69
2023/02/02 13:31:03;;;;;;;;;;;;;;;;;;5047923;28;19928;-66
2023/02/02 13:33:29;;;;;;;;;;;;;;;;;;5049045;28;19924;-66
2023/02/02 13:35:55;;;;;;;;;;;;;;;;;;5046946;28;19931;-67
2023/02/02 13:38:21;;;;;;;;;;;;;;;;;;5033214;28;19921;-68
2023/02/02 13:40:47;;;;;;;;;;;;;;;;;;5046754;28;19928;-67
2023/02/02 13:43:13;;;;;;;;;;;;;;;;;;5045405;28;19932;-67
2023/02/02 13:45:39;;;;;;;;;;;;;;;;;;5033303;28;19963;-67
2023/02/02 13:48:05;;;;;;;;;;;;;;;;;;5050724;28;19920;-68
2023/02/02 13:50:31;;;;;;;;;;;;;;;;;;5052261;28;19921;-68
2023/02/02 13:52:56;;;;;;;;;;;;;;;;;;5050383;28;19929;-67
2023/02/02 13:55:22;;;;;;;;;;;;;;;;;;5047855;28;20389;-67
2023/02/02 13:57:51;;;;;;;;;;;;;;;;;;5052016;28;19924;-67
2023/02/02 14:00:17;;;;;;;;;;;;;;;;;;5028307;28;19928;-67
2023/02/02 14:02:43;;;;;;;;;;;;;;;;;;5045217;28;19972;-68
2023/02/02 14:05:09;;;;;;;;;;;;;;;;;;5027133;28;20339;-68
2023/02/02 14:07:35;;;;;;;;;;;;;;;;;;5052146;28;19945;-68
2023/02/02 14:10:00;;;;;;;;;;;;;;;;;;5024567;28;19928;-68
2023/02/02 14:12:26;;;;;;;;;;;;;;;;;;5031190;28;19924;-68
2023/02/02 14:14:52;;;;;;;;;;;;;;;;;;5031369;28;19968;-68
2023/02/02 14:17:18;;;;;;;;;;;;;;;;;;5051761;28;19982;-68
2023/02/02 14:19:44;;;;;;;;;;;;;;;;;;5031492;28;19921;-69
2023/02/02 14:22:13;;;;;;;;;;;;;;;;;;5025911;28;19932;-69
2023/02/02 14:24:39;;;;;;;;;;;;;;;;;;5033027;28;20554;-69
2023/02/02 14:27:05;;;;;;;;;;;;;;;;;;5031681;28;19928;-69
2023/02/02 14:29:31;;;;;;;;;;;;;;;;;;5030663;28;19925;-69
2023/02/02 14:31:57;;;;;;;;;;;;;;;;;;5047455;28;19956;-67
2023/02/02 14:34:23;;;;;;;;;;;;;;;;;;5049410;28;19928;-67
2023/02/02 14:36:48;;;;;;;;;;;;;;;;;;5051138;28;19929;-68
2023/02/02 14:39:14;;;;;;;;;;;;;;;;;;5048375;28;20476;-68
2023/02/02 14:44:25;;;;;;;;;;;;;;;;;;5050229;28;20003;-68
2023/02/02 14:46:51;;;;;;;;;;;;;;;;;;5049915;28;20342;-68
2023/02/02 14:49:17;;;;;;;;;;;;;;;;;;5038709;28;19929;-68
2023/02/02 14:51:44;;;;;;;;;;;;;;;;;;5050878;28;19920;-68
2023/02/02 14:54:11;;;;;;;;;;;;;;;;;;5050522;28;19921;-68
2023/02/02 14:56:37;;;;;;;;;;;;;;;;;;5039144;28;20287;-68
2023/02/02 14:59:03;;;;;;;;;;;;;;;;;;5012272;28;19921;-68
2023/02/02 15:01:29;;;;;;;;;;;;;;;;;;5047127;28;19925;-68
2023/02/02 15:03:55;;;;;;;;;;;;;;;;;;5026407;28;19949;-68
2023/02/02 15:06:21;;;;;;;;;;;;;;;;;;5048484;28;19928;-68
2023/02/02 15:08:47;;;;;;;;;;;;;;;;;;5049180;28;20019;-68
2023/02/02 15:11:28;;;;;;;;;;;;;;;;;;5008403;28;20390;-69
2023/02/02 15:13:54;;;;;;;;;;;;;;;;;;5046631;28;19921;-68
2023/02/02 15:16:23;;;;;;;;;;;;;;;;;;5020808;28;19932;-67
2023/02/02 15:18:49;;;;;;;;;;;;;;;;;;5047749;28;20473;-67
2023/02/02 15:21:15;;;;;;;;;;;;;;;;;;5028943;28;19925;-68
2023/02/02 15:23:41;;;;;;;;;;;;;;;;;;5048992;28;19927;-67
2023/02/02 15:26:07;;;;;;;;;;;;;;;;;;5049246;28;20298;-67
2023/02/02 15:28:32;;;;;;;;;;;;;;;;;;5030433;28;20465;-67
2023/02/02 15:30:58;;;;;;;;;;;;;;;;;;5044044;28;19925;-67
2023/02/02 15:33:24;;;;;;;;;;;;;;;;;;5049456;28;19928;-67
2023/02/02 15:35:50;;;;;;;;;;;;;;;;;;5049537;28;19924;-67
2023/02/02 15:38:16;;;;;;;;;;;;;;;;;;5042901;28;20118;-67
2023/02/02 15:40:42;;;;;;;;;;;;;;;;;;5044648;28;20306;-67
2023/02/02 15:43:08;;;;;;;;;;;;;;;;;;5043867;28;19921;-67
2023/02/02 15:45:34;;;;;;;;;;;;;;;;;;5043874;28;20278;-67
2023/02/02 15:48:00;;;;;;;;;;;;;;;;;;5038638;28;20580;-67
2023/02/02 15:50:26;;;;;;;;;;;;;;;;;;5054452;28;19928;-67
2023/02/02 15:52:52;;;;;;;;;;;;;;;;;;5052333;28;19925;-67
2023/02/02 15:55:18;;;;;;;;;;;;;;;;;;5054509;28;20263;-67
2023/02/02 15:57:47;;;;;;;;;;;;;;;;;;5052442;28;20342;-67
2023/02/02 16:00:12;;;;;;;;;;;;;;;;;;5052438;28;19939;-67
2023/02/02 16:02:38;;;;;;;;;;;;;;;;;;5046163;28;19921;-67
2023/02/02 16:05:04;;;;;;;;;;;;;;;;;;5046681;28;19920;-67
2023/02/02 16:07:30;;;;;;;;;;;;;;;;;;5034280;28;20007;-67
2023/02/02 16:09:56;;;;;;;;;;;;;;;;;;5052373;28;19925;-67
2023/02/02 16:12:22;;;;;;;;;;;;;;;;;;5034360;28;19967;-67
2023/02/02 16:14:48;;;;;;;;;;;;;;;;;;5054050;28;20274;-67
2023/02/02 16:17:14;;;;;;;;;;;;;;;;;;5050758;28;20331;-67
2023/02/02 16:19:40;;;;;;;;;;;;;;;;;;5052167;28;19984;-67
2023/02/02 16:22:06;;;;;;;;;;;;;;;;;;5048620;28;19942;-67
2023/02/02 16:24:32;;;;;;;;;;;;;;;;;;5052422;28;20556;-67
2023/02/02 16:26:58;;;;;;;;;;;;;;;;;;5051490;28;19925;-67
2023/02/02 16:29:26;;;;;;;;;;;;;;;;;;5030449;28;19921;-67
2023/02/02 16:31:52;;;;;;;;;;;;;;;;;;5025080;28;19924;-67
2023/02/02 16:34:18;;;;;;;;;;;;;;;;;;5051596;28;19994;-67
2023/02/02 16:36:44;;;;;;;;;;;;;;;;;;5046833;28;19924;-67
2023/02/02 16:39:09;;;;;;;;;;;;;;;;;;5052303;28;19986;-67
2023/02/02 16:41:35;;;;;;;;;;;;;;;;;;5053234;28;19929;-67
2023/02/02 16:44:01;;;;;;;;;;;;;;;;;;5052610;28;19927;-67
2023/02/02 16:46:27;;;;;;;;;;;;;;;;;;5015972;28;19958;-68
2023/02/02 16:48:53;;;;;;;;;;;;;;;;;;5026947;28;20498;-67
2023/02/02 16:51:19;;;;;;;;;;;;;;;;;;5030671;28;19929;-67
2023/02/02 16:53:45;;;;;;;;;;;;;;;;;;5048604;28;19994;-67
2023/02/02 16:56:11;;;;;;;;;;;;;;;;;;5049249;28;19929;-67
2023/02/02 16:58:36;;;;;;;;;;;;;;;;;;5043500;28;19963;-67